createdAt,value
2017-08-27T00:02:13.595Z,13.87
2017-08-27T00:04:42.091Z,13.03
2017-08-27T00:07:10.572Z,14.10
2017-08-27T00:09:39.054Z,14.50
2017-08-27T00:12:07.561Z,14.37
2017-08-27T00:14:36.123Z,14.87
2017-08-27T00:17:04.591Z,14.33
2017-08-27T00:19:33.075Z,13.43
2017-08-27T00:22:01.631Z,14.43
2017-08-27T00:24:30.139Z,13.93
2017-08-27T00:26:58.791Z,14.70
2017-08-27T00:29:27.320Z,14.90
2017-08-27T00:31:56.004Z,15.20
2017-08-27T00:34:24.532Z,14.40
2017-08-27T00:36:53.061Z,14.70
2017-08-27T00:39:21.523Z,14.27
2017-08-27T00:41:50.005Z,15.03
2017-08-27T00:44:18.484Z,14.00
2017-08-27T00:46:46.962Z,14.83
2017-08-27T00:49:15.552Z,15.03
2017-08-27T00:51:43.761Z,15.03
2017-08-27T00:54:12.241Z,15.70
2017-08-27T00:56:40.702Z,14.53
2017-08-27T00:59:09.310Z,14.67
2017-08-27T01:01:37.767Z,15.43
2017-08-27T01:04:06.248Z,15.73
2017-08-27T01:06:34.276Z,13.83
2017-08-27T01:09:02.728Z,15.47
2017-08-27T01:11:31.212Z,15.30
2017-08-27T01:13:59.326Z,14.90
2017-08-27T01:16:27.851Z,15.93
2017-08-27T01:18:56.315Z,15.03
2017-08-27T01:21:24.888Z,16.40
2017-08-27T01:23:52.659Z,16.67
2017-08-27T01:26:21.230Z,15.70
2017-08-27T01:28:50.483Z,16.40
2017-08-27T01:31:18.945Z,15.30
2017-08-27T01:33:47.432Z,14.90
2017-08-27T01:36:15.907Z,15.40
2017-08-27T01:38:44.415Z,16.80
2017-08-27T01:41:12.965Z,14.60
2017-08-27T01:43:41.627Z,16.43
2017-08-27T01:46:10.104Z,16.00
2017-08-27T01:48:38.575Z,17.10
2017-08-27T01:51:07.074Z,16.20
2017-08-27T01:53:35.547Z,16.63
2017-08-27T01:56:04.035Z,16.73
2017-08-27T01:58:32.505Z,15.77
2017-08-27T02:01:00.971Z,16.50
2017-08-27T02:03:29.484Z,16.23
2017-08-27T02:05:58.034Z,15.83
2017-08-27T02:08:26.513Z,16.70
2017-08-27T02:10:54.976Z,15.93
2017-08-27T02:13:23.467Z,15.17
2017-08-27T02:15:51.954Z,16.47
2017-08-27T02:18:20.415Z,17.10
2017-08-27T02:20:48.901Z,16.33
2017-08-27T02:23:18.127Z,16.90
2017-08-27T02:25:46.606Z,15.63
2017-08-27T02:28:15.069Z,15.50
2017-08-27T02:30:43.559Z,16.87
2017-08-27T02:33:12.045Z,16.43
2017-08-27T02:35:40.749Z,15.50
2017-08-27T02:38:09.225Z,16.07
2017-08-27T02:40:37.700Z,16.40
2017-08-27T02:43:06.192Z,16.20
2017-08-27T02:45:34.652Z,16.30
2017-08-27T02:48:03.133Z,17.90
2017-08-27T02:50:31.679Z,17.00
2017-08-27T02:53:00.162Z,18.30
2017-08-27T02:55:28.656Z,16.43
2017-08-27T02:57:58.015Z,18.77
2017-08-27T03:00:26.494Z,18.60
2017-08-27T03:02:54.963Z,16.63
2017-08-27T03:05:23.546Z,16.70
2017-08-27T03:07:52.006Z,17.07
2017-08-27T03:10:20.488Z,15.97
2017-08-27T03:12:48.972Z,17.27
2017-08-27T03:15:17.433Z,16.73
2017-08-27T03:17:45.915Z,17.27
2017-08-27T03:20:14.387Z,17.27
2017-08-27T03:22:42.874Z,17.07
2017-08-27T03:25:12.111Z,16.80
2017-08-27T03:27:40.593Z,18.60
2017-08-27T03:30:09.072Z,17.23
2017-08-27T03:32:37.547Z,18.33
2017-08-27T03:35:06.027Z,16.40
2017-08-27T03:37:34.511Z,16.70
2017-08-27T03:40:02.975Z,16.70
2017-08-27T03:42:31.550Z,15.93
2017-08-27T03:45:00.010Z,16.73
2017-08-27T03:47:28.499Z,17.47
2017-08-27T03:49:56.971Z,16.97
2017-08-27T03:52:25.459Z,16.63
2017-08-27T03:54:54.091Z,17.70
2017-08-27T03:57:22.560Z,17.30
2017-08-27T03:59:51.815Z,17.73
2017-08-27T04:02:20.275Z,17.43
2017-08-27T04:04:48.735Z,16.00
2017-08-27T04:07:17.230Z,18.40
2017-08-27T04:09:45.499Z,16.83
2017-08-27T04:12:14.004Z,16.13
2017-08-27T04:14:42.463Z,16.93
2017-08-27T04:17:10.955Z,17.17
2017-08-27T04:19:39.415Z,16.60
2017-08-27T04:22:07.955Z,16.77
2017-08-27T04:24:36.417Z,18.20
2017-08-27T04:27:04.904Z,17.80
2017-08-27T04:29:33.369Z,16.43
2017-08-27T04:32:01.850Z,18.67
2017-08-27T04:34:30.467Z,18.60
2017-08-27T04:36:59.088Z,18.10
2017-08-27T04:39:27.716Z,17.00
2017-08-27T04:41:56.184Z,17.20
2017-08-27T04:44:24.670Z,16.60
2017-08-27T04:46:53.171Z,16.70
2017-08-27T04:49:21.827Z,18.40
2017-08-27T04:51:54.142Z,17.80
2017-08-27T04:54:22.616Z,18.20
2017-08-27T04:56:51.095Z,18.17
2017-08-27T04:59:19.559Z,15.63
2017-08-27T05:01:48.015Z,17.30
2017-08-27T05:04:16.495Z,16.70
2017-08-27T05:06:44.956Z,17.80
2017-08-27T05:09:13.445Z,16.20
2017-08-27T05:11:41.922Z,17.33
2017-08-27T05:14:10.403Z,15.23
2017-08-27T05:16:38.872Z,15.97
2017-08-27T05:19:07.464Z,16.33
2017-08-27T05:21:35.923Z,15.90
2017-08-27T05:24:04.401Z,17.13
2017-08-27T05:26:32.887Z,17.60
2017-08-27T05:29:01.353Z,16.37
2017-08-27T05:31:29.915Z,16.63
2017-08-27T05:33:58.183Z,17.97
2017-08-27T05:36:26.669Z,16.47
2017-08-27T05:38:55.916Z,16.23
2017-08-27T05:41:25.140Z,15.40
2017-08-27T05:43:53.670Z,16.10
2017-08-27T05:46:22.135Z,15.70
2017-08-27T05:48:50.635Z,16.90
2017-08-27T05:51:19.108Z,16.80
2017-08-27T05:53:48.442Z,15.00
2017-08-27T05:56:16.934Z,15.80
2017-08-27T05:58:45.411Z,15.67
2017-08-27T06:01:13.881Z,16.67
2017-08-27T06:03:42.363Z,16.90
2017-08-27T06:06:10.822Z,16.40
2017-08-27T06:08:40.095Z,15.97
2017-08-27T06:11:08.563Z,15.83
2017-08-27T06:13:37.036Z,14.83
2017-08-27T06:16:05.523Z,16.00
2017-08-27T06:18:34.096Z,16.10
2017-08-27T06:21:02.566Z,15.10
2017-08-27T06:23:31.052Z,15.70
2017-08-27T06:25:59.511Z,15.80
2017-08-27T06:28:27.803Z,14.07
2017-08-27T06:30:56.403Z,15.00
2017-08-27T06:33:24.865Z,16.97
2017-08-27T06:35:53.360Z,17.90
2017-08-27T06:38:22.607Z,17.67
2017-08-27T06:40:51.096Z,18.03
2017-08-27T06:43:19.556Z,17.13
2017-08-27T06:45:48.044Z,16.40
2017-08-27T06:48:16.503Z,15.73
2017-08-27T06:50:44.975Z,15.80
2017-08-27T06:53:13.437Z,17.43
2017-08-27T06:55:41.920Z,15.90
2017-08-27T06:58:10.387Z,16.67
2017-08-27T07:00:38.852Z,16.63
2017-08-27T07:03:07.331Z,17.60
2017-08-27T07:05:35.905Z,16.73
2017-08-27T07:08:04.412Z,16.27
2017-08-27T07:10:32.876Z,16.30
2017-08-27T07:13:01.369Z,15.80
2017-08-27T07:15:29.837Z,16.20
2017-08-27T07:17:58.315Z,16.33
2017-08-27T07:20:26.864Z,15.93
2017-08-27T07:22:55.004Z,16.20
2017-08-27T07:25:23.505Z,15.93
2017-08-27T07:27:51.983Z,14.93
2017-08-27T07:30:20.496Z,15.63
2017-08-27T07:32:48.971Z,17.03
2017-08-27T07:35:17.463Z,16.43
2017-08-27T07:37:45.944Z,16.20
2017-08-27T07:40:14.427Z,16.33
2017-08-27T07:42:42.908Z,17.30
2017-08-27T07:45:11.379Z,17.03
2017-08-27T07:47:39.887Z,17.20
2017-08-27T07:50:08.372Z,18.10
2017-08-27T07:52:36.831Z,16.50
2017-08-27T07:55:05.325Z,17.33
2017-08-27T07:57:33.804Z,16.70
2017-08-27T08:00:02.268Z,17.80
2017-08-27T08:02:30.749Z,18.60
2017-08-27T08:04:59.210Z,17.90
2017-08-27T08:07:27.713Z,17.07
2017-08-27T08:09:56.224Z,17.70
2017-08-27T08:12:24.492Z,39.27
2017-08-27T08:14:52.963Z,18.53
2017-08-27T08:17:21.437Z,17.67
2017-08-27T08:19:49.927Z,17.17
2017-08-27T08:22:18.404Z,17.33
2017-08-27T08:24:46.894Z,17.20
2017-08-27T08:27:15.361Z,17.13
2017-08-27T08:29:43.873Z,16.20
2017-08-27T08:32:12.383Z,16.20
2017-08-27T08:34:40.863Z,17.07
2017-08-27T08:37:09.143Z,17.90
2017-08-27T08:39:37.644Z,16.93
2017-08-27T08:42:06.869Z,16.90
2017-08-27T08:44:35.334Z,15.10
2017-08-27T08:47:03.832Z,15.80
2017-08-27T08:49:32.357Z,15.33
2017-08-27T08:52:00.836Z,15.80
2017-08-27T08:54:29.355Z,14.10
2017-08-27T08:56:57.860Z,15.97
2017-08-27T08:59:26.334Z,14.10
2017-08-27T09:01:54.822Z,16.10
2017-08-27T09:04:23.298Z,16.77
2017-08-27T09:06:51.764Z,17.63
2017-08-27T09:09:20.249Z,17.97
2017-08-27T09:11:48.748Z,20.20
2017-08-27T09:14:17.207Z,21.03
2017-08-27T09:16:45.700Z,21.37
2017-08-27T09:19:14.178Z,22.93
2017-08-27T09:21:43.422Z,24.10
2017-08-27T09:24:11.911Z,26.40
2017-08-27T09:26:40.390Z,27.33
2017-08-27T09:29:08.887Z,28.73
2017-08-27T09:31:37.377Z,28.60
2017-08-27T09:34:05.904Z,29.43
2017-08-27T09:36:34.386Z,30.90
2017-08-27T09:39:03.282Z,34.90
2017-08-27T09:41:31.772Z,26.87
2017-08-27T09:44:00.237Z,26.67
2017-08-27T09:46:28.695Z,28.80
2017-08-27T09:48:57.181Z,30.43
2017-08-27T09:51:25.682Z,28.63
2017-08-27T09:53:54.940Z,33.20
2017-08-27T09:56:23.403Z,29.80
2017-08-27T09:58:51.863Z,29.57
2017-08-27T10:01:20.344Z,30.07
2017-08-27T10:03:48.847Z,30.27
2017-08-27T10:06:17.309Z,29.50
2017-08-27T10:08:45.804Z,28.30
2017-08-27T10:11:14.083Z,30.93
2017-08-27T10:13:42.544Z,28.37
2017-08-27T10:16:11.027Z,26.03
2017-08-27T10:18:40.273Z,26.87
2017-08-27T10:21:08.796Z,28.07
2017-08-27T10:23:37.271Z,26.50
2017-08-27T10:26:05.763Z,23.77
2017-08-27T10:28:35.004Z,22.70
2017-08-27T10:31:03.486Z,25.47
2017-08-27T10:33:31.971Z,23.50
2017-08-27T10:36:00.480Z,26.30
2017-08-27T10:38:28.996Z,25.50
2017-08-27T10:40:57.475Z,23.33
2017-08-27T10:43:26.732Z,24.73
2017-08-27T10:45:55.197Z,22.10
2017-08-27T10:48:23.674Z,22.43
2017-08-27T10:50:52.140Z,21.80
2017-08-27T10:53:20.699Z,23.77
2017-08-27T10:55:49.963Z,21.97
2017-08-27T10:58:18.454Z,21.30
2017-08-27T11:00:46.935Z,21.27
2017-08-27T11:03:15.436Z,19.90
2017-08-27T11:05:43.923Z,20.93
2017-08-27T11:08:12.411Z,21.57
2017-08-27T11:10:40.910Z,21.80
2017-08-27T11:13:09.370Z,19.70
2017-08-27T11:15:37.839Z,21.13
2017-08-27T11:18:06.410Z,22.37
2017-08-27T11:20:34.892Z,20.33
2017-08-27T11:23:03.171Z,21.80
2017-08-27T11:25:31.648Z,19.50
2017-08-27T11:28:00.156Z,20.13
2017-08-27T11:30:28.631Z,19.90
2017-08-27T11:32:57.116Z,21.23
2017-08-27T11:35:25.594Z,19.73
2017-08-27T11:37:54.103Z,21.00
2017-08-27T11:40:22.583Z,21.03
2017-08-27T11:42:51.052Z,19.37
2017-08-27T11:45:19.547Z,18.70
2017-08-27T11:47:48.017Z,17.97
2017-08-27T11:50:16.552Z,18.03
2017-08-27T11:52:45.035Z,18.30
2017-08-27T11:55:13.541Z,19.17
2017-08-27T11:57:42.010Z,18.40
2017-08-27T12:00:10.513Z,17.77
2017-08-27T12:02:38.985Z,18.80
2017-08-27T12:05:07.445Z,18.30
2017-08-27T12:07:35.920Z,20.27
2017-08-27T12:10:04.393Z,19.20
2017-08-27T12:12:32.901Z,19.80
2017-08-27T12:15:01.392Z,19.50
2017-08-27T12:17:29.878Z,17.30
2017-08-27T12:19:58.365Z,18.03
2017-08-27T12:22:26.822Z,16.43
2017-08-27T12:24:55.311Z,17.60
2017-08-27T12:27:23.770Z,17.13
2017-08-27T12:29:52.265Z,16.80
2017-08-27T12:32:20.724Z,17.87
2017-08-27T12:34:49.981Z,17.00
2017-08-27T12:37:18.564Z,18.40
2017-08-27T12:39:47.079Z,15.93
2017-08-27T12:42:15.569Z,16.63
2017-08-27T12:44:44.087Z,15.37
2017-08-27T12:47:12.581Z,14.30
2017-08-27T12:49:41.207Z,15.40
2017-08-27T12:52:09.683Z,15.97
2017-08-27T12:54:38.168Z,14.13
2017-08-27T12:57:06.647Z,15.17
2017-08-27T12:59:35.127Z,15.47
2017-08-27T13:02:03.623Z,16.37
2017-08-27T13:04:32.108Z,14.70
2017-08-27T13:07:00.652Z,15.73
2017-08-27T13:09:29.134Z,14.47
2017-08-27T13:11:57.620Z,15.13
2017-08-27T13:14:26.110Z,14.97
2017-08-27T13:16:54.613Z,14.80
2017-08-27T13:19:23.092Z,12.87
2017-08-27T13:21:51.602Z,13.80
2017-08-27T13:24:20.068Z,13.40
2017-08-27T13:26:48.571Z,14.20
2017-08-27T13:29:17.767Z,14.80
2017-08-27T13:31:46.347Z,14.90
2017-08-27T13:34:14.857Z,15.40
2017-08-27T13:36:43.336Z,15.57
2017-08-27T13:39:11.833Z,15.10
2017-08-27T13:41:40.331Z,14.10
2017-08-27T13:44:08.807Z,14.50
2017-08-27T13:46:37.269Z,13.67
2017-08-27T13:49:05.761Z,14.83
2017-08-27T13:51:34.233Z,13.90
2017-08-27T13:54:02.729Z,14.47
2017-08-27T13:56:31.207Z,14.00
2017-08-27T13:58:59.667Z,13.10
2017-08-27T14:01:28.214Z,14.97
2017-08-27T14:03:56.784Z,14.30
2017-08-27T14:06:25.259Z,14.17
2017-08-27T14:08:53.746Z,14.23
2017-08-27T14:11:22.254Z,15.90
2017-08-27T14:13:50.795Z,15.23
2017-08-27T14:16:19.254Z,14.40
2017-08-27T14:18:47.812Z,14.43
2017-08-27T14:21:16.334Z,14.43
2017-08-27T14:23:44.949Z,16.07
2017-08-27T14:26:13.676Z,15.07
2017-08-27T14:28:42.605Z,14.47
2017-08-27T14:31:11.564Z,16.07
2017-08-27T14:33:40.463Z,16.20
2017-08-27T14:36:09.439Z,14.73
2017-08-27T14:38:38.392Z,14.30
2017-08-27T14:41:08.024Z,14.33
2017-08-27T14:43:37.009Z,14.33
2017-08-27T14:46:05.870Z,15.53
2017-08-27T14:48:34.776Z,14.33
2017-08-27T14:51:03.658Z,14.80
2017-08-27T14:53:32.369Z,15.47
2017-08-27T14:56:01.187Z,15.70
2017-08-27T14:58:29.710Z,14.30
2017-08-27T15:00:58.192Z,14.87
2017-08-27T15:03:27.111Z,15.27
2017-08-27T15:05:56.036Z,15.10
2017-08-27T15:08:24.961Z,14.80
2017-08-27T15:10:53.483Z,15.03
2017-08-27T15:13:21.995Z,14.30
2017-08-27T15:15:51.276Z,15.53
2017-08-27T15:18:19.764Z,14.97
2017-08-27T15:20:48.263Z,15.93
2017-08-27T15:23:16.684Z,16.43
2017-08-27T15:25:45.178Z,15.70
2017-08-27T15:28:13.682Z,15.67
2017-08-27T15:30:42.176Z,14.93
2017-08-27T15:33:10.668Z,14.80
2017-08-27T15:35:39.164Z,14.40
2017-08-27T15:38:07.627Z,15.40
2017-08-27T15:40:36.139Z,14.60
2017-08-27T15:43:04.610Z,13.87
2017-08-27T15:45:33.256Z,14.10
2017-08-27T15:48:01.811Z,14.43
2017-08-27T15:50:30.131Z,14.03
2017-08-27T15:52:58.603Z,13.00
2017-08-27T15:55:27.084Z,14.90
2017-08-27T15:57:55.558Z,14.80
2017-08-27T16:00:24.025Z,13.50
2017-08-27T16:02:52.527Z,14.70
2017-08-27T16:05:21.100Z,15.30
2017-08-27T16:07:49.593Z,15.27
2017-08-27T16:10:18.081Z,15.27
2017-08-27T16:12:46.563Z,15.30
2017-08-27T16:15:14.885Z,14.10
2017-08-27T16:17:43.391Z,13.80
2017-08-27T16:20:11.859Z,13.47
2017-08-27T16:22:40.158Z,13.03
2017-08-27T16:25:08.491Z,13.60
2017-08-27T16:27:36.780Z,13.57
2017-08-27T16:30:05.171Z,12.20
2017-08-27T16:32:33.471Z,10.97
2017-08-27T16:35:01.780Z,10.23
2017-08-27T16:37:30.091Z,10.80
2017-08-27T16:39:59.180Z,11.17
2017-08-27T16:42:27.488Z,11.43
2017-08-27T16:44:56.539Z,11.97
2017-08-27T16:47:39.945Z,13.40
2017-08-27T16:50:08.249Z,11.67
2017-08-27T16:52:36.557Z,13.33
2017-08-27T16:55:06.056Z,11.70
2017-08-27T16:57:34.544Z,11.70
2017-08-27T17:00:03.011Z,11.37
2017-08-27T17:02:31.508Z,11.13
2017-08-27T17:04:59.971Z,11.53
2017-08-27T17:07:28.480Z,10.37
2017-08-27T17:09:56.798Z,10.77
2017-08-27T17:12:25.081Z,10.50
2017-08-27T17:14:53.393Z,9.70
2017-08-27T17:17:21.688Z,10.50
2017-08-27T17:19:49.971Z,10.50
2017-08-27T17:22:18.265Z,10.30
2017-08-27T17:24:46.555Z,10.40
2017-08-27T17:27:14.851Z,10.70
2017-08-27T17:29:43.235Z,10.17
2017-08-27T17:32:11.540Z,11.47
2017-08-27T17:34:40.073Z,10.73
2017-08-27T17:37:08.423Z,9.80
2017-08-27T17:39:36.710Z,10.90
2017-08-27T17:42:05.023Z,10.90
2017-08-27T17:44:33.295Z,10.40
2017-08-27T17:47:01.616Z,11.27
2017-08-27T17:49:30.169Z,10.70
2017-08-27T17:51:58.479Z,10.20
2017-08-27T17:54:26.794Z,10.33
2017-08-27T17:56:55.075Z,10.17
2017-08-27T17:59:23.491Z,10.13
2017-08-27T18:01:51.816Z,10.10
2017-08-27T18:04:20.119Z,11.13
2017-08-27T18:06:48.404Z,10.60
2017-08-27T18:09:16.711Z,11.27
2017-08-27T18:11:45.192Z,12.57
2017-08-27T18:14:13.707Z,9.70
2017-08-27T18:16:41.988Z,10.90
2017-08-27T18:19:11.215Z,12.30
2017-08-27T18:21:39.704Z,10.57
2017-08-27T18:24:08.205Z,10.70
2017-08-27T18:26:36.708Z,11.63
2017-08-27T18:29:05.163Z,11.03
2017-08-27T18:31:33.676Z,10.93
2017-08-27T18:34:01.956Z,10.57
2017-08-27T18:36:30.467Z,10.97
2017-08-27T18:38:59.700Z,11.37
2017-08-27T18:41:28.200Z,12.17
2017-08-27T18:43:56.671Z,12.60
2017-08-27T18:46:25.179Z,22.73
2017-08-27T18:48:53.666Z,12.90
2017-08-27T18:51:22.125Z,17.50
2017-08-27T18:53:50.615Z,79.43
2017-08-27T18:56:19.190Z,17.60
2017-08-27T18:58:47.691Z,12.00
2017-08-27T19:01:16.264Z,11.43
2017-08-27T19:03:50.253Z,12.10
2017-08-27T19:06:18.739Z,11.47
2017-08-27T19:08:47.222Z,11.60
2017-08-27T19:11:15.744Z,12.17
2017-08-27T19:13:44.318Z,13.47
2017-08-27T19:16:12.811Z,13.97
2017-08-27T19:18:41.084Z,12.70
2017-08-27T19:21:09.648Z,13.00
2017-08-27T19:23:38.135Z,13.63
2017-08-27T19:26:06.615Z,13.77
2017-08-27T19:28:35.124Z,14.93
2017-08-27T19:31:03.609Z,14.93
2017-08-27T19:33:32.105Z,14.33
2017-08-27T19:36:00.588Z,15.80
2017-08-27T19:38:29.075Z,13.47
2017-08-27T19:40:57.592Z,14.43
2017-08-27T19:43:26.087Z,15.60
2017-08-27T19:45:54.558Z,16.37
2017-08-27T19:48:23.029Z,14.80
2017-08-27T19:50:51.573Z,15.40
2017-08-27T19:53:20.078Z,14.83
2017-08-27T19:55:48.581Z,14.67
2017-08-27T19:58:17.225Z,19.10
2017-08-27T20:00:45.553Z,18.03
2017-08-27T20:03:13.844Z,17.50
2017-08-27T20:05:42.436Z,18.80
2017-08-27T20:08:10.921Z,17.20
2017-08-27T20:10:39.422Z,16.57
2017-08-27T20:13:07.928Z,18.47
2017-08-27T20:15:36.405Z,18.83
2017-08-27T20:18:04.896Z,17.87
2017-08-27T20:20:34.153Z,18.13
2017-08-27T20:23:02.642Z,19.60
2017-08-27T20:25:31.263Z,18.80
2017-08-27T20:28:00.514Z,19.43
2017-08-27T20:30:28.994Z,18.17
2017-08-27T20:32:57.545Z,17.27
2017-08-27T20:35:26.076Z,16.73
2017-08-27T20:37:54.812Z,16.70
2017-08-27T20:40:23.295Z,17.83
2017-08-27T20:42:51.786Z,18.13
2017-08-27T20:45:20.262Z,18.80
2017-08-27T20:47:48.746Z,18.97
2017-08-27T20:50:17.399Z,20.17
2017-08-27T20:52:45.868Z,16.83
2017-08-27T20:55:14.332Z,18.43
2017-08-27T20:57:42.945Z,19.37
2017-08-27T21:00:11.447Z,18.57
2017-08-27T21:02:40.086Z,19.63
2017-08-27T21:05:08.567Z,19.30
2017-08-27T21:07:37.064Z,18.90
2017-08-27T21:10:05.556Z,18.90
2017-08-27T21:12:34.022Z,21.23
2017-08-27T21:15:02.519Z,18.13
2017-08-27T21:17:30.864Z,18.63
2017-08-27T21:19:59.355Z,18.83
2017-08-27T21:22:27.823Z,18.30
2017-08-27T21:24:56.423Z,17.50
2017-08-27T21:27:24.910Z,18.53
2017-08-27T21:29:53.407Z,17.30
2017-08-27T21:32:21.885Z,19.37
2017-08-27T21:34:50.348Z,19.07
2017-08-27T21:37:18.844Z,20.20
2017-08-27T21:39:47.346Z,19.23
2017-08-27T21:42:15.899Z,17.93
2017-08-27T21:44:44.420Z,17.87
2017-08-27T21:47:12.907Z,18.47
2017-08-27T21:49:41.370Z,19.20
2017-08-27T21:52:09.967Z,18.13
2017-08-27T21:54:38.454Z,21.10
2017-08-27T21:57:06.927Z,23.20
2017-08-27T21:59:35.427Z,22.50
2017-08-27T22:02:03.903Z,23.00
2017-08-27T22:04:32.483Z,21.20
2017-08-27T22:07:00.948Z,21.43
2017-08-27T22:09:29.564Z,18.67
2017-08-27T22:11:57.675Z,19.50
2017-08-27T22:14:26.152Z,18.60
2017-08-27T22:16:54.623Z,20.50
2017-08-27T22:19:23.874Z,21.80
2017-08-27T22:21:52.347Z,22.63
2017-08-27T22:24:20.818Z,21.97
2017-08-27T22:26:50.076Z,21.30
2017-08-27T22:29:18.554Z,22.43
2017-08-27T22:31:47.107Z,21.40
2017-08-27T22:34:15.368Z,22.50
2017-08-27T22:36:43.898Z,19.63
2017-08-27T22:39:12.368Z,20.60
2017-08-27T22:41:40.651Z,20.40
2017-08-27T22:44:09.115Z,19.07
2017-08-27T22:46:37.579Z,19.20
2017-08-27T22:49:06.059Z,20.13
2017-08-27T22:51:34.524Z,19.70
2017-08-27T22:54:03.015Z,19.97
2017-08-27T22:56:31.636Z,20.70
2017-08-27T22:59:01.687Z,21.10
2017-08-27T23:01:29.830Z,19.50
2017-08-27T23:03:58.345Z,21.00
2017-08-27T23:06:27.063Z,20.77
2017-08-27T23:08:55.776Z,21.30
2017-08-27T23:11:24.239Z,18.60
2017-08-27T23:13:52.726Z,18.97
2017-08-27T23:16:21.311Z,21.50
2017-08-27T23:18:49.821Z,21.17
2017-08-27T23:21:18.291Z,19.97
2017-08-27T23:23:46.759Z,18.53
2017-08-27T23:26:15.040Z,20.30
2017-08-27T23:28:43.535Z,19.67
2017-08-27T23:31:11.999Z,18.93
2017-08-27T23:33:40.280Z,18.50
2017-08-27T23:36:08.779Z,20.27
2017-08-27T23:38:37.239Z,20.43
2017-08-27T23:41:05.791Z,19.23
2017-08-27T23:43:34.256Z,19.70
2017-08-27T23:46:02.719Z,20.50
2017-08-27T23:48:31.191Z,18.30
2017-08-27T23:50:59.788Z,19.20
2017-08-27T23:53:28.271Z,18.60
2017-08-27T23:55:56.735Z,17.80
2017-08-27T23:58:25.223Z,18.80
